sensor_id;sensor_type;location;lat;lon;timestamp;P1;durP1;ratioP1;P2;durP2;ratioP2
20830;SDS011;10576;53.556;9.868;2023-08-20T00:01:15;343.98;;;111.53;;
20830;SDS011;10576;53.556;9.868;2023-08-20T00:03:47;338.38;;;112.63;;
20830;SDS011;10576;53.556;9.868;2023-08-20T00:06:13;336.15;;;111.43;;
20830;SDS011;10576;53.556;9.868;2023-08-20T00:08:39;339.40;;;109.75;;
20830;SDS011;10576;53.556;9.868;2023-08-20T00:11:05;351.30;;;115.10;;
20830;SDS011;10576;53.556;9.868;2023-08-20T00:13:31;348.70;;;110.70;;
20830;SDS011;10576;53.556;9.868;2023-08-20T00:15:56;355.75;;;117.22;;
20830;SDS011;10576;53.556;9.868;2023-08-20T00:18:22;351.03;;;112.13;;
20830;SDS011;10576;53.556;9.868;2023-08-20T00:20:48;355.27;;;115.30;;
20830;SDS011;10576;53.556;9.868;2023-08-20T00:23:14;348.45;;;110.70;;
20830;SDS011;10576;53.556;9.868;2023-08-20T00:25:40;345.67;;;112.85;;
20830;SDS011;10576;53.556;9.868;2023-08-20T00:28:06;345.60;;;111.53;;
20830;SDS011;10576;53.556;9.868;2023-08-20T00:30:31;352.15;;;117.43;;
20830;SDS011;10576;53.556;9.868;2023-08-20T00:32:57;350.70;;;116.43;;
20830;SDS011;10576;53.556;9.868;2023-08-20T00:35:23;352.17;;;111.72;;
20830;SDS011;10576;53.556;9.868;2023-08-20T00:37:48;347.58;;;108.80;;
20830;SDS011;10576;53.556;9.868;2023-08-20T00:40:15;336.38;;;110.13;;
20830;SDS011;10576;53.556;9.868;2023-08-20T00:42:40;331.03;;;108.03;;
20830;SDS011;10576;53.556;9.868;2023-08-20T00:45:06;333.73;;;113.03;;
20830;SDS011;10576;53.556;9.868;2023-08-20T00:47:32;332.02;;;110.53;;
20830;SDS011;10576;53.556;9.868;2023-08-20T00:49:58;329.17;;;106.72;;
20830;SDS011;10576;53.556;9.868;2023-08-20T00:52:24;329.67;;;104.93;;
20830;SDS011;10576;53.556;9.868;2023-08-20T00:54:50;330.45;;;103.63;;
20830;SDS011;10576;53.556;9.868;2023-08-20T00:57:19;330.50;;;106.47;;
20830;SDS011;10576;53.556;9.868;2023-08-20T00:59:46;340.42;;;108.90;;
20830;SDS011;10576;53.556;9.868;2023-08-20T01:02:16;338.80;;;113.72;;
20830;SDS011;10576;53.556;9.868;2023-08-20T01:04:43;338.02;;;114.28;;
20830;SDS011;10576;53.556;9.868;2023-08-20T01:12:41;333.85;;;111.95;;
20830;SDS011;10576;53.556;9.868;2023-08-20T01:15:08;328.35;;;105.55;;
20830;SDS011;10576;53.556;9.868;2023-08-20T01:17:38;333.02;;;109.50;;
20830;SDS011;10576;53.556;9.868;2023-08-20T01:20:10;328.48;;;113.25;;
20830;SDS011;10576;53.556;9.868;2023-08-20T01:30:44;329.10;;;121.25;;
20830;SDS011;10576;53.556;9.868;2023-08-20T01:33:11;326.38;;;112.40;;
20830;SDS011;10576;53.556;9.868;2023-08-20T01:35:40;326.98;;;113.93;;
20830;SDS011;10576;53.556;9.868;2023-08-20T01:38:06;317.05;;;99.50;;
20830;SDS011;10576;53.556;9.868;2023-08-20T01:40:32;318.38;;;96.88;;
20830;SDS011;10576;53.556;9.868;2023-08-20T01:42:58;331.75;;;104.97;;
20830;SDS011;10576;53.556;9.868;2023-08-20T01:45:24;352.50;;;131.70;;
20830;SDS011;10576;53.556;9.868;2023-08-20T01:47:51;318.52;;;100.93;;
20830;SDS011;10576;53.556;9.868;2023-08-20T01:50:16;321.30;;;100.97;;
20830;SDS011;10576;53.556;9.868;2023-08-20T01:52:42;319.58;;;96.00;;
20830;SDS011;10576;53.556;9.868;2023-08-20T01:55:08;321.17;;;100.88;;
20830;SDS011;10576;53.556;9.868;2023-08-20T01:57:33;340.27;;;121.77;;
20830;SDS011;10576;53.556;9.868;2023-08-20T01:59:59;322.52;;;106.32;;
20830;SDS011;10576;53.556;9.868;2023-08-20T02:02:25;326.53;;;109.40;;
20830;SDS011;10576;53.556;9.868;2023-08-20T02:04:51;320.17;;;103.95;;
20830;SDS011;10576;53.556;9.868;2023-08-20T02:07:16;323.33;;;108.15;;
20830;SDS011;10576;53.556;9.868;2023-08-20T02:09:42;311.87;;;104.33;;
20830;SDS011;10576;53.556;9.868;2023-08-20T02:12:08;311.35;;;97.05;;
20830;SDS011;10576;53.556;9.868;2023-08-20T02:14:34;343.73;;;129.95;;
20830;SDS011;10576;53.556;9.868;2023-08-20T02:17:00;370.40;;;140.55;;
20830;SDS011;10576;53.556;9.868;2023-08-20T02:19:27;314.23;;;94.70;;
20830;SDS011;10576;53.556;9.868;2023-08-20T02:21:53;352.08;;;128.57;;
20830;SDS011;10576;53.556;9.868;2023-08-20T02:24:18;326.17;;;116.50;;
20830;SDS011;10576;53.556;9.868;2023-08-20T02:26:44;349.88;;;128.50;;
20830;SDS011;10576;53.556;9.868;2023-08-20T02:29:10;330.43;;;124.80;;
20830;SDS011;10576;53.556;9.868;2023-08-20T02:31:35;325.55;;;103.55;;
20830;SDS011;10576;53.556;9.868;2023-08-20T02:34:01;326.13;;;111.13;;
20830;SDS011;10576;53.556;9.868;2023-08-20T02:36:27;340.03;;;120.83;;
20830;SDS011;10576;53.556;9.868;2023-08-20T02:38:52;329.63;;;116.93;;
20830;SDS011;10576;53.556;9.868;2023-08-20T02:41:18;326.70;;;111.72;;
20830;SDS011;10576;53.556;9.868;2023-08-20T02:43:44;329.57;;;118.60;;
20830;SDS011;10576;53.556;9.868;2023-08-20T02:46:10;325.70;;;111.45;;
20830;SDS011;10576;53.556;9.868;2023-08-20T02:48:36;329.83;;;117.70;;
20830;SDS011;10576;53.556;9.868;2023-08-20T02:51:02;314.02;;;106.10;;
20830;SDS011;10576;53.556;9.868;2023-08-20T02:53:27;304.50;;;96.70;;
20830;SDS011;10576;53.556;9.868;2023-08-20T02:55:53;308.13;;;97.50;;
20830;SDS011;10576;53.556;9.868;2023-08-20T02:58:19;310.17;;;97.40;;
20830;SDS011;10576;53.556;9.868;2023-08-20T03:00:45;310.50;;;100.10;;
20830;SDS011;10576;53.556;9.868;2023-08-20T03:03:11;309.10;;;95.90;;
20830;SDS011;10576;53.556;9.868;2023-08-20T03:05:37;304.33;;;92.35;;
20830;SDS011;10576;53.556;9.868;2023-08-20T03:08:02;302.05;;;90.32;;
20830;SDS011;10576;53.556;9.868;2023-08-20T03:10:29;304.03;;;93.97;;
20830;SDS011;10576;53.556;9.868;2023-08-20T03:12:56;303.92;;;90.40;;
20830;SDS011;10576;53.556;9.868;2023-08-20T03:15:22;319.55;;;110.15;;
20830;SDS011;10576;53.556;9.868;2023-08-20T03:17:47;320.13;;;108.87;;
20830;SDS011;10576;53.556;9.868;2023-08-20T03:20:13;314.50;;;102.13;;
20830;SDS011;10576;53.556;9.868;2023-08-20T03:22:39;313.48;;;102.22;;
20830;SDS011;10576;53.556;9.868;2023-08-20T03:25:05;314.98;;;103.30;;
20830;SDS011;10576;53.556;9.868;2023-08-20T03:27:31;313.60;;;100.63;;
20830;SDS011;10576;53.556;9.868;2023-08-20T03:29:57;309.63;;;98.60;;
20830;SDS011;10576;53.556;9.868;2023-08-20T03:32:23;308.15;;;95.03;;
20830;SDS011;10576;53.556;9.868;2023-08-20T03:34:49;306.73;;;94.77;;
20830;SDS011;10576;53.556;9.868;2023-08-20T03:37:15;304.65;;;93.75;;
20830;SDS011;10576;53.556;9.868;2023-08-20T03:39:40;305.47;;;95.50;;
20830;SDS011;10576;53.556;9.868;2023-08-20T03:42:06;309.50;;;99.63;;
20830;SDS011;10576;53.556;9.868;2023-08-20T03:44:32;310.70;;;97.17;;
20830;SDS011;10576;53.556;9.868;2023-08-20T03:46:57;310.07;;;96.70;;
20830;SDS011;10576;53.556;9.868;2023-08-20T03:49:23;307.70;;;95.00;;
20830;SDS011;10576;53.556;9.868;2023-08-20T03:51:49;308.30;;;94.30;;
20830;SDS011;10576;53.556;9.868;2023-08-20T03:54:14;306.73;;;92.63;;
20830;SDS011;10576;53.556;9.868;2023-08-20T03:56:40;309.13;;;94.15;;
20830;SDS011;10576;53.556;9.868;2023-08-20T03:59:05;309.60;;;94.95;;
20830;SDS011;10576;53.556;9.868;2023-08-20T04:01:31;309.27;;;94.70;;
20830;SDS011;10576;53.556;9.868;2023-08-20T04:03:57;310.60;;;96.88;;
20830;SDS011;10576;53.556;9.868;2023-08-20T04:06:23;311.53;;;98.07;;
20830;SDS011;10576;53.556;9.868;2023-08-20T04:08:48;308.77;;;95.20;;
20830;SDS011;10576;53.556;9.868;2023-08-20T04:11:14;308.88;;;93.70;;
20830;SDS011;10576;53.556;9.868;2023-08-20T04:13:40;311.42;;;94.88;;
20830;SDS011;10576;53.556;9.868;2023-08-20T04:16:08;312.05;;;97.45;;
20830;SDS011;10576;53.556;9.868;2023-08-20T04:18:34;312.45;;;95.35;;
20830;SDS011;10576;53.556;9.868;2023-08-20T04:21:00;311.80;;;96.63;;
20830;SDS011;10576;53.556;9.868;2023-08-20T04:23:25;314.33;;;98.38;;
20830;SDS011;10576;53.556;9.868;2023-08-20T04:25:51;313.30;;;95.82;;
20830;SDS011;10576;53.556;9.868;2023-08-20T04:28:17;311.40;;;93.95;;
20830;SDS011;10576;53.556;9.868;2023-08-20T04:30:42;312.55;;;95.22;;
20830;SDS011;10576;53.556;9.868;2023-08-20T04:33:08;312.17;;;95.40;;
20830;SDS011;10576;53.556;9.868;2023-08-20T04:35:34;313.10;;;95.28;;
20830;SDS011;10576;53.556;9.868;2023-08-20T04:38:00;312.53;;;95.43;;
20830;SDS011;10576;53.556;9.868;2023-08-20T04:40:26;316.65;;;101.13;;
20830;SDS011;10576;53.556;9.868;2023-08-20T04:42:51;312.60;;;95.43;;
20830;SDS011;10576;53.556;9.868;2023-08-20T04:45:17;314.80;;;98.70;;
20830;SDS011;10576;53.556;9.868;2023-08-20T04:47:44;313.57;;;95.87;;
20830;SDS011;10576;53.556;9.868;2023-08-20T04:50:12;316.77;;;101.28;;
20830;SDS011;10576;53.556;9.868;2023-08-20T04:52:41;315.08;;;98.05;;
20830;SDS011;10576;53.556;9.868;2023-08-20T04:55:06;316.13;;;99.65;;
20830;SDS011;10576;53.556;9.868;2023-08-20T04:57:33;313.40;;;94.95;;
20830;SDS011;10576;53.556;9.868;2023-08-20T04:59:59;315.67;;;97.10;;
20830;SDS011;10576;53.556;9.868;2023-08-20T05:02:24;318.88;;;103.97;;
20830;SDS011;10576;53.556;9.868;2023-08-20T05:04:50;316.90;;;102.20;;
20830;SDS011;10576;53.556;9.868;2023-08-20T05:07:16;315.27;;;96.30;;
20830;SDS011;10576;53.556;9.868;2023-08-20T05:09:42;314.20;;;95.73;;
20830;SDS011;10576;53.556;9.868;2023-08-20T05:12:08;316.60;;;99.00;;
20830;SDS011;10576;53.556;9.868;2023-08-20T05:14:34;317.65;;;99.72;;
20830;SDS011;10576;53.556;9.868;2023-08-20T05:17:00;310.00;;;93.13;;
20830;SDS011;10576;53.556;9.868;2023-08-20T05:19:25;319.90;;;102.75;;
20830;SDS011;10576;53.556;9.868;2023-08-20T05:21:51;305.07;;;88.83;;
20830;SDS011;10576;53.556;9.868;2023-08-20T05:24:21;308.25;;;91.35;;
20830;SDS011;10576;53.556;9.868;2023-08-20T05:26:47;311.05;;;92.53;;
20830;SDS011;10576;53.556;9.868;2023-08-20T05:29:14;311.42;;;94.28;;
20830;SDS011;10576;53.556;9.868;2023-08-20T05:31:40;308.88;;;92.60;;
20830;SDS011;10576;53.556;9.868;2023-08-20T05:34:06;308.03;;;89.47;;
20830;SDS011;10576;53.556;9.868;2023-08-20T05:36:31;306.43;;;88.97;;
20830;SDS011;10576;53.556;9.868;2023-08-20T05:38:57;307.92;;;91.13;;
20830;SDS011;10576;53.556;9.868;2023-08-20T05:41:23;303.53;;;90.20;;
20830;SDS011;10576;53.556;9.868;2023-08-20T05:43:48;309.97;;;100.17;;
20830;SDS011;10576;53.556;9.868;2023-08-20T05:46:14;305.35;;;92.15;;
20830;SDS011;10576;53.556;9.868;2023-08-20T05:48:39;308.77;;;92.07;;
20830;SDS011;10576;53.556;9.868;2023-08-20T05:51:05;312.93;;;97.53;;
20830;SDS011;10576;53.556;9.868;2023-08-20T05:53:30;311.23;;;92.77;;
20830;SDS011;10576;53.556;9.868;2023-08-20T05:55:56;318.50;;;99.82;;
20830;SDS011;10576;53.556;9.868;2023-08-20T05:58:22;317.13;;;99.55;;
20830;SDS011;10576;53.556;9.868;2023-08-20T06:00:47;318.80;;;99.30;;
20830;SDS011;10576;53.556;9.868;2023-08-20T06:03:13;320.30;;;104.93;;
20830;SDS011;10576;53.556;9.868;2023-08-20T06:05:39;316.27;;;96.60;;
20830;SDS011;10576;53.556;9.868;2023-08-20T06:08:04;315.27;;;96.93;;
20830;SDS011;10576;53.556;9.868;2023-08-20T06:10:31;312.30;;;96.03;;
20830;SDS011;10576;53.556;9.868;2023-08-20T06:12:56;315.27;;;98.10;;
20830;SDS011;10576;53.556;9.868;2023-08-20T06:15:22;318.20;;;99.65;;
20830;SDS011;10576;53.556;9.868;2023-08-20T06:17:48;317.53;;;100.13;;
20830;SDS011;10576;53.556;9.868;2023-08-20T06:20:13;318.00;;;100.03;;
20830;SDS011;10576;53.556;9.868;2023-08-20T06:22:39;318.75;;;102.10;;
20830;SDS011;10576;53.556;9.868;2023-08-20T06:25:05;317.53;;;102.10;;
20830;SDS011;10576;53.556;9.868;2023-08-20T06:27:30;319.48;;;103.57;;
20830;SDS011;10576;53.556;9.868;2023-08-20T06:29:56;317.47;;;101.17;;
20830;SDS011;10576;53.556;9.868;2023-08-20T06:32:23;317.23;;;102.50;;
20830;SDS011;10576;53.556;9.868;2023-08-20T06:34:48;320.42;;;103.75;;
20830;SDS011;10576;53.556;9.868;2023-08-20T06:37:14;322.35;;;109.63;;
20830;SDS011;10576;53.556;9.868;2023-08-20T06:39:40;320.23;;;106.80;;
20830;SDS011;10576;53.556;9.868;2023-08-20T06:42:05;319.65;;;105.10;;
20830;SDS011;10576;53.556;9.868;2023-08-20T06:44:31;319.98;;;106.25;;
20830;SDS011;10576;53.556;9.868;2023-08-20T06:46:56;320.43;;;105.27;;
20830;SDS011;10576;53.556;9.868;2023-08-20T06:49:22;319.73;;;107.03;;
20830;SDS011;10576;53.556;9.868;2023-08-20T06:51:48;318.08;;;106.13;;
20830;SDS011;10576;53.556;9.868;2023-08-20T06:54:16;326.23;;;117.03;;
20830;SDS011;10576;53.556;9.868;2023-08-20T06:56:42;324.13;;;113.30;;
20830;SDS011;10576;53.556;9.868;2023-08-20T06:59:08;318.40;;;111.55;;
20830;SDS011;10576;53.556;9.868;2023-08-20T07:01:35;316.75;;;106.13;;
20830;SDS011;10576;53.556;9.868;2023-08-20T07:04:00;318.07;;;108.73;;
20830;SDS011;10576;53.556;9.868;2023-08-20T07:06:26;316.80;;;108.45;;
20830;SDS011;10576;53.556;9.868;2023-08-20T07:08:52;317.10;;;107.95;;
20830;SDS011;10576;53.556;9.868;2023-08-20T07:11:18;312.58;;;100.97;;
20830;SDS011;10576;53.556;9.868;2023-08-20T07:13:43;312.30;;;100.20;;
20830;SDS011;10576;53.556;9.868;2023-08-20T07:16:09;312.77;;;101.63;;
20830;SDS011;10576;53.556;9.868;2023-08-20T07:18:36;316.70;;;105.88;;
20830;SDS011;10576;53.556;9.868;2023-08-20T07:21:01;316.23;;;104.20;;
20830;SDS011;10576;53.556;9.868;2023-08-20T07:23:27;318.20;;;107.70;;
20830;SDS011;10576;53.556;9.868;2023-08-20T07:26:03;318.70;;;107.10;;
20830;SDS011;10576;53.556;9.868;2023-08-20T07:28:33;319.55;;;111.28;;
20830;SDS011;10576;53.556;9.868;2023-08-20T07:31:19;319.83;;;109.57;;
20830;SDS011;10576;53.556;9.868;2023-08-20T07:33:46;318.67;;;106.80;;
20830;SDS011;10576;53.556;9.868;2023-08-20T07:36:12;317.90;;;108.80;;
20830;SDS011;10576;53.556;9.868;2023-08-20T07:38:38;316.07;;;105.13;;
20830;SDS011;10576;53.556;9.868;2023-08-20T07:41:06;314.45;;;105.40;;
20830;SDS011;10576;53.556;9.868;2023-08-20T07:43:32;318.17;;;109.50;;
20830;SDS011;10576;53.556;9.868;2023-08-20T07:45:57;319.50;;;111.18;;
20830;SDS011;10576;53.556;9.868;2023-08-20T07:48:23;317.20;;;107.57;;
20830;SDS011;10576;53.556;9.868;2023-08-20T07:50:49;315.20;;;105.10;;
20830;SDS011;10576;53.556;9.868;2023-08-20T07:53:14;327.70;;;120.80;;
20830;SDS011;10576;53.556;9.868;2023-08-20T07:55:40;324.15;;;114.95;;
20830;SDS011;10576;53.556;9.868;2023-08-20T07:58:06;324.77;;;120.37;;
20830;SDS011;10576;53.556;9.868;2023-08-20T08:00:31;321.17;;;113.23;;
20830;SDS011;10576;53.556;9.868;2023-08-20T08:02:57;322.02;;;116.63;;
20830;SDS011;10576;53.556;9.868;2023-08-20T08:05:23;319.15;;;113.55;;
20830;SDS011;10576;53.556;9.868;2023-08-20T08:07:48;319.20;;;111.60;;
20830;SDS011;10576;53.556;9.868;2023-08-20T08:10:14;322.15;;;115.53;;
20830;SDS011;10576;53.556;9.868;2023-08-20T08:12:40;321.80;;;116.00;;
20830;SDS011;10576;53.556;9.868;2023-08-20T08:15:05;334.13;;;133.10;;
20830;SDS011;10576;53.556;9.868;2023-08-20T08:17:31;339.40;;;140.40;;
20830;SDS011;10576;53.556;9.868;2023-08-20T08:19:57;334.88;;;133.05;;
20830;SDS011;10576;53.556;9.868;2023-08-20T08:22:23;333.30;;;132.25;;
20830;SDS011;10576;53.556;9.868;2023-08-20T08:24:49;331.67;;;129.17;;
20830;SDS011;10576;53.556;9.868;2023-08-20T08:27:14;330.90;;;130.57;;
20830;SDS011;10576;53.556;9.868;2023-08-20T08:29:40;330.15;;;130.70;;
20830;SDS011;10576;53.556;9.868;2023-08-20T08:32:06;328.55;;;128.88;;
20830;SDS011;10576;53.556;9.868;2023-08-20T08:34:31;327.30;;;128.60;;
20830;SDS011;10576;53.556;9.868;2023-08-20T08:36:57;331.77;;;134.70;;
20830;SDS011;10576;53.556;9.868;2023-08-20T08:39:23;332.53;;;137.33;;
20830;SDS011;10576;53.556;9.868;2023-08-20T08:41:49;327.20;;;133.40;;
20830;SDS011;10576;53.556;9.868;2023-08-20T08:44:18;329.83;;;137.43;;
20830;SDS011;10576;53.556;9.868;2023-08-20T08:46:45;329.60;;;136.40;;
20830;SDS011;10576;53.556;9.868;2023-08-20T08:49:14;329.75;;;143.88;;
20830;SDS011;10576;53.556;9.868;2023-08-20T08:51:40;310.73;;;114.50;;
20830;SDS011;10576;53.556;9.868;2023-08-20T08:54:09;318.13;;;125.68;;
20830;SDS011;10576;53.556;9.868;2023-08-20T08:56:36;316.38;;;124.25;;
20830;SDS011;10576;53.556;9.868;2023-08-20T08:59:01;314.70;;;122.43;;
20830;SDS011;10576;53.556;9.868;2023-08-20T09:01:28;317.10;;;125.85;;
20830;SDS011;10576;53.556;9.868;2023-08-20T09:03:54;313.23;;;121.63;;
20830;SDS011;10576;53.556;9.868;2023-08-20T09:06:19;316.70;;;126.00;;
20830;SDS011;10576;53.556;9.868;2023-08-20T09:08:45;329.00;;;152.47;;
20830;SDS011;10576;53.556;9.868;2023-08-20T09:11:10;327.23;;;147.75;;
20830;SDS011;10576;53.556;9.868;2023-08-20T09:13:41;328.67;;;149.90;;
20830;SDS011;10576;53.556;9.868;2023-08-20T09:16:09;330.30;;;149.07;;
20830;SDS011;10576;53.556;9.868;2023-08-20T09:18:45;337.35;;;165.10;;
20830;SDS011;10576;53.556;9.868;2023-08-20T09:21:12;333.77;;;162.02;;
20830;SDS011;10576;53.556;9.868;2023-08-20T09:23:39;332.92;;;161.52;;
20830;SDS011;10576;53.556;9.868;2023-08-20T09:26:05;335.73;;;162.32;;
20830;SDS011;10576;53.556;9.868;2023-08-20T09:28:44;361.45;;;240.23;;
20830;SDS011;10576;53.556;9.868;2023-08-20T09:31:11;341.13;;;194.82;;
20830;SDS011;10576;53.556;9.868;2023-08-20T09:33:51;320.85;;;147.60;;
20830;SDS011;10576;53.556;9.868;2023-08-20T09:36:17;325.60;;;153.35;;
20830;SDS011;10576;53.556;9.868;2023-08-20T09:38:44;326.45;;;157.80;;
20830;SDS011;10576;53.556;9.868;2023-08-20T09:41:09;326.95;;;156.70;;
20830;SDS011;10576;53.556;9.868;2023-08-20T09:43:40;326.55;;;155.27;;
20830;SDS011;10576;53.556;9.868;2023-08-20T09:46:11;326.60;;;156.23;;
20830;SDS011;10576;53.556;9.868;2023-08-20T09:48:44;324.98;;;153.10;;
20830;SDS011;10576;53.556;9.868;2023-08-20T09:51:13;326.58;;;157.82;;
20830;SDS011;10576;53.556;9.868;2023-08-20T09:53:45;324.38;;;153.40;;
20830;SDS011;10576;53.556;9.868;2023-08-20T09:56:32;329.80;;;164.43;;
20830;SDS011;10576;53.556;9.868;2023-08-20T09:59:03;324.67;;;161.40;;
20830;SDS011;10576;53.556;9.868;2023-08-20T10:01:29;324.35;;;159.43;;
20830;SDS011;10576;53.556;9.868;2023-08-20T10:03:55;327.83;;;167.02;;
20830;SDS011;10576;53.556;9.868;2023-08-20T10:06:22;322.55;;;158.32;;
20830;SDS011;10576;53.556;9.868;2023-08-20T10:08:50;321.33;;;155.90;;
20830;SDS011;10576;53.556;9.868;2023-08-20T10:11:16;323.75;;;158.27;;
20830;SDS011;10576;53.556;9.868;2023-08-20T10:13:42;323.55;;;160.35;;
20830;SDS011;10576;53.556;9.868;2023-08-20T10:16:08;322.60;;;156.45;;
20830;SDS011;10576;53.556;9.868;2023-08-20T10:18:36;320.27;;;152.80;;
20830;SDS011;10576;53.556;9.868;2023-08-20T10:21:02;320.43;;;152.57;;
20830;SDS011;10576;53.556;9.868;2023-08-20T10:23:29;317.85;;;147.32;;
20830;SDS011;10576;53.556;9.868;2023-08-20T10:26:06;321.60;;;154.45;;
20830;SDS011;10576;53.556;9.868;2023-08-20T10:28:34;321.02;;;154.43;;
20830;SDS011;10576;53.556;9.868;2023-08-20T10:31:03;323.00;;;156.75;;
20830;SDS011;10576;53.556;9.868;2023-08-20T10:33:35;326.97;;;170.37;;
20830;SDS011;10576;53.556;9.868;2023-08-20T10:36:15;322.92;;;159.75;;
20830;SDS011;10576;53.556;9.868;2023-08-20T10:38:42;320.25;;;152.55;;
20830;SDS011;10576;53.556;9.868;2023-08-20T10:41:10;320.77;;;155.80;;
20830;SDS011;10576;53.556;9.868;2023-08-20T10:46:14;322.52;;;161.80;;
20830;SDS011;10576;53.556;9.868;2023-08-20T10:48:41;323.55;;;164.30;;
20830;SDS011;10576;53.556;9.868;2023-08-20T10:51:11;319.45;;;157.55;;
20830;SDS011;10576;53.556;9.868;2023-08-20T10:53:40;322.35;;;162.95;;
20830;SDS011;10576;53.556;9.868;2023-08-20T10:56:14;321.98;;;162.90;;
20830;SDS011;10576;53.556;9.868;2023-08-20T10:58:41;327.90;;;178.38;;
20830;SDS011;10576;53.556;9.868;2023-08-20T11:03:44;329.58;;;179.68;;
20830;SDS011;10576;53.556;9.868;2023-08-20T11:06:11;332.80;;;186.52;;
20830;SDS011;10576;53.556;9.868;2023-08-20T11:08:37;329.40;;;179.65;;
20830;SDS011;10576;53.556;9.868;2023-08-20T11:11:05;329.60;;;182.45;;
20830;SDS011;10576;53.556;9.868;2023-08-20T11:13:32;328.52;;;179.30;;
20830;SDS011;10576;53.556;9.868;2023-08-20T11:15:58;331.70;;;184.07;;
20830;SDS011;10576;53.556;9.868;2023-08-20T11:18:24;330.95;;;178.75;;
20830;SDS011;10576;53.556;9.868;2023-08-20T11:20:50;330.10;;;176.75;;
20830;SDS011;10576;53.556;9.868;2023-08-20T11:23:16;328.83;;;176.00;;
20830;SDS011;10576;53.556;9.868;2023-08-20T11:25:42;324.20;;;163.95;;
20830;SDS011;10576;53.556;9.868;2023-08-20T11:28:08;322.80;;;162.25;;
20830;SDS011;10576;53.556;9.868;2023-08-20T11:30:34;326.75;;;170.52;;
20830;SDS011;10576;53.556;9.868;2023-08-20T11:33:00;328.00;;;171.50;;
20830;SDS011;10576;53.556;9.868;2023-08-20T11:35:27;331.00;;;176.38;;
20830;SDS011;10576;53.556;9.868;2023-08-20T11:37:53;332.98;;;180.02;;
20830;SDS011;10576;53.556;9.868;2023-08-20T11:40:21;327.52;;;169.15;;
20830;SDS011;10576;53.556;9.868;2023-08-20T11:42:48;329.83;;;174.43;;
20830;SDS011;10576;53.556;9.868;2023-08-20T11:45:14;325.40;;;165.15;;
20830;SDS011;10576;53.556;9.868;2023-08-20T11:47:40;324.38;;;163.95;;
20830;SDS011;10576;53.556;9.868;2023-08-20T11:50:06;321.97;;;158.23;;
20830;SDS011;10576;53.556;9.868;2023-08-20T11:52:33;324.00;;;160.50;;
20830;SDS011;10576;53.556;9.868;2023-08-20T11:55:00;322.52;;;157.25;;
20830;SDS011;10576;53.556;9.868;2023-08-20T11:57:27;326.37;;;164.77;;
20830;SDS011;10576;53.556;9.868;2023-08-20T11:59:54;325.40;;;160.68;;
20830;SDS011;10576;53.556;9.868;2023-08-20T12:02:27;326.38;;;163.13;;
20830;SDS011;10576;53.556;9.868;2023-08-20T12:04:55;326.05;;;163.43;;
20830;SDS011;10576;53.556;9.868;2023-08-20T12:07:25;327.45;;;165.90;;
20830;SDS011;10576;53.556;9.868;2023-08-20T12:09:54;326.23;;;164.00;;
20830;SDS011;10576;53.556;9.868;2023-08-20T12:12:20;327.45;;;169.35;;
20830;SDS011;10576;53.556;9.868;2023-08-20T12:14:46;331.00;;;174.63;;
20830;SDS011;10576;53.556;9.868;2023-08-20T12:17:12;329.40;;;172.10;;
20830;SDS011;10576;53.556;9.868;2023-08-20T12:19:41;325.98;;;166.35;;
20830;SDS011;10576;53.556;9.868;2023-08-20T12:22:07;326.00;;;167.27;;
20830;SDS011;10576;53.556;9.868;2023-08-20T12:24:33;327.58;;;171.75;;
20830;SDS011;10576;53.556;9.868;2023-08-20T12:26:59;327.00;;;169.90;;
20830;SDS011;10576;53.556;9.868;2023-08-20T12:29:24;324.37;;;163.00;;
20830;SDS011;10576;53.556;9.868;2023-08-20T12:31:50;321.80;;;160.57;;
20830;SDS011;10576;53.556;9.868;2023-08-20T12:34:17;321.35;;;160.38;;
20830;SDS011;10576;53.556;9.868;2023-08-20T12:36:42;319.77;;;156.82;;
20830;SDS011;10576;53.556;9.868;2023-08-20T12:39:08;321.48;;;158.35;;
20830;SDS011;10576;53.556;9.868;2023-08-20T12:41:34;322.15;;;161.65;;
20830;SDS011;10576;53.556;9.868;2023-08-20T12:44:01;322.35;;;160.80;;
20830;SDS011;10576;53.556;9.868;2023-08-20T12:46:27;319.40;;;155.10;;
20830;SDS011;10576;53.556;9.868;2023-08-20T12:48:53;326.75;;;167.10;;
20830;SDS011;10576;53.556;9.868;2023-08-20T12:51:18;320.23;;;157.23;;
20830;SDS011;10576;53.556;9.868;2023-08-20T12:53:44;318.03;;;153.77;;
20830;SDS011;10576;53.556;9.868;2023-08-20T12:56:10;320.65;;;156.65;;
20830;SDS011;10576;53.556;9.868;2023-08-20T12:58:36;320.10;;;157.47;;
20830;SDS011;10576;53.556;9.868;2023-08-20T13:01:02;322.63;;;161.80;;
20830;SDS011;10576;53.556;9.868;2023-08-20T13:03:28;323.50;;;162.73;;
20830;SDS011;10576;53.556;9.868;2023-08-20T13:05:54;321.93;;;161.83;;
20830;SDS011;10576;53.556;9.868;2023-08-20T13:08:23;321.45;;;162.73;;
20830;SDS011;10576;53.556;9.868;2023-08-20T13:10:54;320.85;;;159.55;;
20830;SDS011;10576;53.556;9.868;2023-08-20T13:13:21;322.42;;;161.70;;
20830;SDS011;10576;53.556;9.868;2023-08-20T13:15:48;319.83;;;156.05;;
20830;SDS011;10576;53.556;9.868;2023-08-20T13:18:14;321.35;;;159.75;;
20830;SDS011;10576;53.556;9.868;2023-08-20T13:20:40;320.02;;;154.13;;
20830;SDS011;10576;53.556;9.868;2023-08-20T13:23:07;321.73;;;159.13;;
20830;SDS011;10576;53.556;9.868;2023-08-20T13:25:32;323.13;;;160.63;;
20830;SDS011;10576;53.556;9.868;2023-08-20T13:27:58;323.77;;;163.03;;
20830;SDS011;10576;53.556;9.868;2023-08-20T13:30:24;327.03;;;168.10;;
20830;SDS011;10576;53.556;9.868;2023-08-20T13:32:49;324.87;;;162.40;;
20830;SDS011;10576;53.556;9.868;2023-08-20T13:35:15;323.90;;;160.43;;
20830;SDS011;10576;53.556;9.868;2023-08-20T13:37:41;321.57;;;155.60;;
20830;SDS011;10576;53.556;9.868;2023-08-20T13:40:07;323.95;;;160.23;;
20830;SDS011;10576;53.556;9.868;2023-08-20T13:42:34;326.58;;;165.38;;
20830;SDS011;10576;53.556;9.868;2023-08-20T13:45:00;322.95;;;158.82;;
20830;SDS011;10576;53.556;9.868;2023-08-20T13:47:25;327.50;;;164.85;;
20830;SDS011;10576;53.556;9.868;2023-08-20T13:49:51;325.00;;;160.03;;
20830;SDS011;10576;53.556;9.868;2023-08-20T13:52:17;325.73;;;158.90;;
20830;SDS011;10576;53.556;9.868;2023-08-20T13:54:42;325.47;;;157.27;;
20830;SDS011;10576;53.556;9.868;2023-08-20T13:57:09;323.67;;;154.17;;
20830;SDS011;10576;53.556;9.868;2023-08-20T13:59:35;323.10;;;151.97;;
20830;SDS011;10576;53.556;9.868;2023-08-20T14:02:00;324.45;;;155.10;;
20830;SDS011;10576;53.556;9.868;2023-08-20T14:04:26;325.30;;;156.50;;
20830;SDS011;10576;53.556;9.868;2023-08-20T14:06:52;320.83;;;151.07;;
20830;SDS011;10576;53.556;9.868;2023-08-20T14:09:17;322.52;;;153.60;;
20830;SDS011;10576;53.556;9.868;2023-08-20T14:11:43;321.13;;;148.73;;
20830;SDS011;10576;53.556;9.868;2023-08-20T14:14:10;323.40;;;152.52;;